Wilson Gaeta — 8PTS — position and weather

sailwx.info

Track history (hours):
 
Tides and Currents Weather Stations Pressure Air Temp Water Temp Dewpoint Dewpoint Depression Visibility Wind Speed Wind Dir Waves Ship Positions

Wilson Gaeta

Last reported at 2016-Sep-25 10:32 UTC. Time now 2016-Sep-26 13:56 UTC.
Position N 57°49' E 005°13'.

Length 88 m; draft 5.6 m.

Type: Ship. MMSI: 314237000.

Date/timePositionNaut miles runAvg speedWind from/ knotsBaromVisibWave heightAir tempDewpointWater temp
2016-Sep-25 10:32N 57°49' E 005°13'6 6.5
2016-Sep-25 09:33N 57°55' E 005°11'12 6.0
2016-Sep-25 07:33N 58°07' E 005°06'18 6.1
2016-Sep-25 04:33N 58°25' E 004°60'18 4.6
2016-Sep-25 00:33N 58°43' E 004°53'10 4.8
2016-Sep-24 22:33N 58°52' E 004°49'5 5.2
2016-Sep-24 21:33N 58°57' E 004°47'11 5.4
2016-Sep-24 19:33N 59°08' E 004°43'5 5.4
2016-Sep-24 18:33N 59°13' E 004°41'271 6.3
2016-Sep-22 23:32N 63°35' E 007°05'207 9.0
2016-Sep-22 00:26N 66°17' E 012°10'8 8.9
2016-Sep-21 23:33N 66°15' E 012°28'0 0.0
2016-Sep-21 03:33N 66°15' E 012°29'9 8.5
2016-Sep-21 02:33N 66°18' E 012°09'68 5.6
2016-Sep-20 14:33N 67°13' E 013°48'9 9.2
2016-Sep-20 13:33N 67°15' E 014°12'5 1.8
2016-Sep-20 10:31N 67°18' E 014°23'0 0.0
2016-Sep-20 08:31N 67°18' E 014°23'0 0.0
2016-Sep-20 07:25N 67°18' E 014°23'0 0.0
2016-Sep-20 06:31N 67°18' E 014°23'0 0.0
2016-Sep-20 02:31N 67°18' E 014°23'0 0.0
2016-Sep-19 23:31N 67°18' E 014°23'0 0.0
2016-Sep-19 19:28N 67°18' E 014°23'0 0.0
2016-Sep-19 18:31N 67°18' E 014°23'0 0.0
2016-Sep-19 16:28N 67°18' E 014°23'0 0.0
2016-Sep-19 14:31N 67°18' E 014°23'0 0.0
2016-Sep-19 13:31N 67°18' E 014°23'0 0.0
2016-Sep-19 12:31N 67°18' E 014°23'0 0.0
2016-Sep-19 11:31N 67°18' E 014°23'0 0.0
2016-Sep-19 09:31N 67°18' E 014°23'0 0.0
2016-Sep-19 07:28N 67°18' E 014°23'0 0.0
2016-Sep-19 06:31N 67°18' E 014°23'0 0.0
2016-Sep-19 03:31N 67°18' E 014°23'0 0.0
2016-Sep-19 02:31N 67°18' E 014°23'0 0.0
2016-Sep-19 00:31N 67°18' E 014°23'0 0.0
2016-Sep-18 19:33N 67°18' E 014°23'81 8.9
2016-Sep-18 10:22N 66°30' E 011°35'486 9.6
2016-Sep-16 07:34N 58°59' E 004°59'4110.2
2016-Sep-16 03:33N 58°26' E 005°43'1111.0
2016-Sep-16 02:33N 58°19' E 005°59'2110.3
2016-Sep-16 00:34N 58°05' E 006°29'2010.2
2016-Sep-15 22:33N 57°58' E 007°05'  
Track history (hours):
 
Tides and Currents Weather Stations Pressure Air Temp Water Temp Dewpoint Dewpoint Depression Visibility Wind Speed Wind Dir Waves Ship Positions

Wilson Gaeta

Last reported at 2016-Sep-25 10:32 UTC. Time now 2016-Sep-26 13:56 UTC.
Position N 57°49' E 005°13'.

Length 88 m; draft 5.6 m.

Type: Ship. MMSI: 314237000.

Date/timePositionNaut miles runAvg speedWind from/ knotsBaromVisibWave heightAir tempDewpointWater temp
2016-Sep-25 10:32N 57°49' E 005°13'6 6.5
2016-Sep-25 09:33N 57°55' E 005°11'12 6.0
2016-Sep-25 07:33N 58°07' E 005°06'18 6.1
2016-Sep-25 04:33N 58°25' E 004°60'18 4.6
2016-Sep-25 00:33N 58°43' E 004°53'10 4.8
2016-Sep-24 22:33N 58°52' E 004°49'5 5.2
2016-Sep-24 21:33N 58°57' E 004°47'11 5.4
2016-Sep-24 19:33N 59°08' E 004°43'5 5.4
2016-Sep-24 18:33N 59°13' E 004°41'271 6.3
2016-Sep-22 23:32N 63°35' E 007°05'207 9.0
2016-Sep-22 00:26N 66°17' E 012°10'8 8.9
2016-Sep-21 23:33N 66°15' E 012°28'0 0.0
2016-Sep-21 03:33N 66°15' E 012°29'9 8.5
2016-Sep-21 02:33N 66°18' E 012°09'68 5.6
2016-Sep-20 14:33N 67°13' E 013°48'9 9.2
2016-Sep-20 13:33N 67°15' E 014°12'5 1.8
2016-Sep-20 10:31N 67°18' E 014°23'0 0.0
2016-Sep-20 08:31N 67°18' E 014°23'0 0.0
2016-Sep-20 07:25N 67°18' E 014°23'0 0.0
2016-Sep-20 06:31N 67°18' E 014°23'0 0.0
2016-Sep-20 02:31N 67°18' E 014°23'0 0.0
2016-Sep-19 23:31N 67°18' E 014°23'0 0.0
2016-Sep-19 19:28N 67°18' E 014°23'0 0.0
2016-Sep-19 18:31N 67°18' E 014°23'0 0.0
2016-Sep-19 16:28N 67°18' E 014°23'0 0.0
2016-Sep-19 14:31N 67°18' E 014°23'0 0.0
2016-Sep-19 13:31N 67°18' E 014°23'0 0.0
2016-Sep-19 12:31N 67°18' E 014°23'0 0.0
2016-Sep-19 11:31N 67°18' E 014°23'0 0.0
2016-Sep-19 09:31N 67°18' E 014°23'0 0.0
2016-Sep-19 07:28N 67°18' E 014°23'0 0.0
2016-Sep-19 06:31N 67°18' E 014°23'0 0.0
2016-Sep-19 03:31N 67°18' E 014°23'0 0.0
2016-Sep-19 02:31N 67°18' E 014°23'0 0.0
2016-Sep-19 00:31N 67°18' E 014°23'0 0.0
2016-Sep-18 19:33N 67°18' E 014°23'81 8.9
2016-Sep-18 10:22N 66°30' E 011°35'486 9.6
2016-Sep-16 07:34N 58°59' E 004°59'4110.2
2016-Sep-16 03:33N 58°26' E 005°43'1111.0
2016-Sep-16 02:33N 58°19' E 005°59'2110.3
2016-Sep-16 00:34N 58°05' E 006°29'2010.2
2016-Sep-15 22:33N 57°58' E 007°05'  

Dump ship's entire track history